Welcome to our new website - Welkom op onze vernieuwde website - Bienvenue sur notre nouveau site web - Willkommen auf unserer neuen Website
Check our progress frequently. Prüfen Sie unsere Fortschritte regelmäßig. Consultez notre progression fréquemment. Komt u straks nog eens terug


Bezoek onze andere website:

Template documentation
and downloads

And another site



METAR rapporten vliegvelden

   
EBBR - Brussels International Airport, Belgium
Afstand tot: W 14 km
Gewijzigd: Jun 25 2021 4:50 am
Helder  
Helder  
   Wind: ZZW 11 km/h
Wind: ZZW 11 km/h
Temperatuur: 11°C
Dauwpunt: 9°C
Vochtigheid: 88%
Barometer: 1019 hPa
Zicht: meer dan 10 km
Bewolking: Helder
EBBR 250250Z 20006KT CAVOK 11/09 Q1019 NOSIG
EBBE - Beauvechain (Bevekom), Belgium
Afstand tot: ZZO 17 km
Gewijzigd: Jun 25 2021 4:25 am
Helder  
Helder  
   Wind: ZZW 11 km/h
Wind: ZZW 11 km/h
Temperatuur: 12°C
Dauwpunt: 10°C
Vochtigheid: 88%
Barometer: 1019 hPa
Bewolking: Helder
Zicht: 8 km
Bewolking: Helder
EBBE 250225Z AUTO 21006KT 8000 NCD 12/10 Q1019 BLU
EBDT - Schaffen, Belgium
Afstand tot: ONO 29 km
Gewijzigd: Jun 25 2021 4:25 am
Nevel, Helder  
Nevel, Helder  
   Wind: ZZW 7 km/h
Wind: ZZW 7 km/h
Temperatuur: 11°C
Dauwpunt: 11°C
Vochtigheid: 100%
Barometer: 1019 hPa
Bewolking: Helder
Zicht: 2 km
Bewolking: Helder
EBDT 250225Z AUTO 20004KT 2100 BR NCD 11/11 Q1019 YLO
EBAW - Antwerp/Deurne, Belgium
Afstand tot: NNW 38 km
Gewijzigd: Jun 25 2021 4:50 am
Helder  
Helder  
   Wind: ZZW 6 km/h
Wind: ZZW 6 km/h
Temperatuur: 13°C
Dauwpunt: 10°C
Vochtigheid: 82%
Barometer: 1019 hPa
Bewolking: Helder
Zicht: 9 km
Bewolking: Helder
EBAW 250250Z AUTO 21003KT 9000 // NCD 13/10 Q1019
EBCI - Charleroi/Gosselies, Belgium
Afstand tot: ZZW 51 km
Gewijzigd: Jun 25 2021 4:50 am
Gedeeltelijk bewolkt  
Gedeeltelijk bewolkt  
   Wind: ZW 11 km/h
Wind: ZW 11 km/h
Temperatuur: 11°C
Dauwpunt: 9°C
Vochtigheid: 88%
Barometer: 1020 hPa
Bewolking: Gedeeltelijk bewolkt
Zicht: 8 km
Bewolking: Gedeeltelijk bewolkt
EBCI 250250Z 22006KT 8000 NSC 11/09 Q1020 NOSIG
EBLG - Bierset/Liege, Belgium
Afstand tot: OZO 60 km
Gewijzigd: Jun 25 2021 4:50 am
Nevel, Licht bewolkt  
Nevel, Licht bewolkt  
   Wind: ZW 11 km/h
Wind: ZW 11 km/h
Temperatuur: 13°C
Dauwpunt: 11°C
Vochtigheid: 88%
Barometer: 1019 hPa
Bewolking: Licht bewolkt
Zicht: 4 km
Bewolking: Licht bewolkt 792.5 m
EBLG 250250Z 22006KT 4000 BR FEW026 13/11 Q1019 TEMPO 2500 BR

Script ontwikkeld door  Saratoga-weather.org Aangepast voor de template door  Weerstation Leuven

U vindt ons ook hier:

Het Weer Aktueel

UK Metoffice

European Weather Network

WeatherCloud

Weather Underground

AWEKAS

Apparatuur in gebruik:

Weerstation
Davis VP2

Weerprogramma
Meteobridge

Weercomputer
Tl-mr3020

Webleverancier
Robohost

Davis VP2

Meteobridge

Tl-mr3020

Robohost